createdAt,value
2023-02-25T00:00:18.555Z,35.00
2023-02-25T00:01:22.605Z,37.25
2023-02-25T00:02:25.529Z,38.00
2023-02-25T00:03:28.195Z,36.50
2023-02-25T00:04:31.272Z,33.00
2023-02-25T00:05:34.690Z,31.50
2023-02-25T00:06:37.328Z,30.50
2023-02-25T00:07:41.298Z,29.00
2023-02-25T00:08:46.000Z,36.25
2023-02-25T00:09:48.619Z,36.50
2023-02-25T00:11:02.485Z,40.00
2023-02-25T00:12:05.233Z,41.50
2023-02-25T00:13:17.808Z,43.50
2023-02-25T00:14:20.970Z,49.25
2023-02-25T00:15:23.945Z,46.00
2023-02-25T00:16:26.900Z,37.25
2023-02-25T00:17:29.650Z,32.00
2023-02-25T00:18:32.742Z,36.25
2023-02-25T00:19:35.461Z,47.00
2023-02-25T00:20:41.072Z,41.00
2023-02-25T00:21:43.741Z,33.50
2023-02-25T00:22:46.361Z,31.00
2023-02-25T00:23:52.311Z,33.75
2023-02-25T00:24:58.893Z,30.00
2023-02-25T00:26:03.439Z,31.00
2023-02-25T00:27:06.117Z,38.00
2023-02-25T00:28:08.914Z,39.00
2023-02-25T00:29:11.573Z,42.75
2023-02-25T00:30:15.732Z,42.00
2023-02-25T00:31:21.620Z,37.00
2023-02-25T00:32:24.800Z,40.50
2023-02-25T00:33:27.571Z,39.00
2023-02-25T00:34:30.325Z,38.75
2023-02-25T00:35:33.541Z,43.25
2023-02-25T00:36:36.157Z,41.75
2023-02-25T00:37:38.760Z,43.00
2023-02-25T00:38:42.043Z,37.25
2023-02-25T00:39:44.813Z,35.75
2023-02-25T00:40:47.864Z,38.75
2023-02-25T00:41:54.433Z,40.50
2023-02-25T00:42:57.101Z,40.50
2023-02-25T00:44:03.458Z,34.75
2023-02-25T00:45:06.484Z,28.00
2023-02-25T00:46:10.825Z,38.50
2023-02-25T00:47:15.414Z,37.75
2023-02-25T00:48:18.032Z,33.25
2023-02-25T00:49:31.802Z,36.25
2023-02-25T00:50:36.247Z,37.50
2023-02-25T00:51:39.736Z,39.00
2023-02-25T00:52:42.428Z,34.75
2023-02-25T00:53:46.020Z,37.00
2023-02-25T00:54:48.886Z,38.25
2023-02-25T00:56:02.795Z,33.00
2023-02-25T00:57:05.547Z,30.00
2023-02-25T00:58:08.266Z,29.75
2023-02-25T00:59:10.939Z,29.50
2023-02-25T01:00:17.282Z,31.00
2023-02-25T01:01:27.381Z,34.50
2023-02-25T01:02:30.547Z,37.75
2023-02-25T01:03:34.187Z,37.00
2023-02-25T01:04:36.816Z,40.50
2023-02-25T01:05:42.900Z,43.50
2023-02-25T01:06:45.771Z,44.00
2023-02-25T01:07:48.416Z,39.25
2023-02-25T01:08:51.337Z,37.00
2023-02-25T01:09:57.124Z,37.00
2023-02-25T01:10:59.751Z,32.50
2023-02-25T01:12:02.377Z,26.00
2023-02-25T01:13:05.903Z,26.75
2023-02-25T01:14:12.960Z,28.00
2023-02-25T01:15:15.739Z,27.75
2023-02-25T01:16:22.123Z,28.50
2023-02-25T01:17:25.062Z,29.00
2023-02-25T01:18:27.687Z,26.00
2023-02-25T01:19:30.777Z,26.00
2023-02-25T01:20:33.869Z,25.75
2023-02-25T01:21:43.160Z,29.00
2023-02-25T01:22:46.018Z,27.00
2023-02-25T01:23:51.538Z,28.00
2023-02-25T01:24:56.955Z,27.00
2023-02-25T01:25:59.595Z,25.00
2023-02-25T01:27:04.470Z,24.25
2023-02-25T01:28:07.939Z,23.75
2023-02-25T01:29:13.003Z,24.00
2023-02-25T01:30:15.739Z,23.25
2023-02-25T01:31:25.768Z,24.50
2023-02-25T01:32:28.552Z,26.75
2023-02-25T01:33:31.313Z,25.00
2023-02-25T01:34:34.816Z,23.00
2023-02-25T01:35:37.896Z,25.75
2023-02-25T01:36:40.624Z,25.00
2023-02-25T01:37:44.899Z,24.50
2023-02-25T01:38:47.505Z,26.00
2023-02-25T01:39:50.143Z,27.00
2023-02-25T01:40:58.968Z,24.75
2023-02-25T01:42:05.236Z,27.25
2023-02-25T01:43:13.808Z,26.50
2023-02-25T01:44:24.293Z,25.75
2023-02-25T01:45:31.984Z,23.75
2023-02-25T01:46:34.879Z,24.00
2023-02-25T01:47:39.445Z,23.50
2023-02-25T01:48:42.457Z,24.25
2023-02-25T01:49:47.508Z,24.50
2023-02-25T01:51:06.087Z,24.50
2023-02-25T01:52:16.408Z,25.00
2023-02-25T01:53:25.175Z,24.00
2023-02-25T01:54:28.845Z,23.25
2023-02-25T01:55:32.205Z,25.50
2023-02-25T01:56:35.853Z,26.00
2023-02-25T01:57:38.920Z,25.50
2023-02-25T01:58:42.068Z,27.50
2023-02-25T01:59:46.226Z,29.00
2023-02-25T02:00:49.020Z,28.25
2023-02-25T02:01:52.696Z,31.00
2023-02-25T02:02:57.101Z,30.00
2023-02-25T02:03:59.821Z,28.25
2023-02-25T02:05:02.525Z,29.50
2023-02-25T02:06:16.496Z,26.00
2023-02-25T02:07:20.862Z,29.00
2023-02-25T02:08:24.977Z,29.00
2023-02-25T02:09:30.199Z,29.00
2023-02-25T02:10:32.860Z,31.00
2023-02-25T02:11:35.667Z,32.00
2023-02-25T02:12:45.040Z,34.25
2023-02-25T02:13:53.024Z,32.75
2023-02-25T02:14:59.072Z,32.00
2023-02-25T02:16:01.713Z,32.00
2023-02-25T02:17:17.007Z,31.00
2023-02-25T02:18:22.187Z,28.00
2023-02-25T02:19:33.633Z,26.50
2023-02-25T02:20:39.396Z,28.50
2023-02-25T02:21:57.142Z,28.00
2023-02-25T02:23:18.496Z,31.00
2023-02-25T02:24:47.034Z,32.25
2023-02-25T02:26:11.260Z,28.00
2023-02-25T02:27:51.353Z,26.75
2023-02-25T02:28:57.061Z,25.00
2023-02-25T02:30:08.378Z,22.50
2023-02-25T02:31:24.920Z,22.50
2023-02-25T02:32:58.763Z,24.00
2023-02-25T02:34:13.292Z,23.00
2023-02-25T02:35:47.375Z,23.00
2023-02-25T02:37:14.275Z,23.25
2023-02-25T02:38:45.174Z,26.50
2023-02-25T02:40:32.824Z,23.50
2023-02-25T02:41:48.066Z,22.00
2023-02-25T02:43:12.254Z,22.50
2023-02-25T02:44:28.539Z,25.00
2023-02-25T02:45:52.070Z,23.00
2023-02-25T02:47:01.612Z,22.00
2023-02-25T02:48:12.518Z,21.00
2023-02-25T02:49:38.001Z,22.00
2023-02-25T02:50:46.329Z,22.50
2023-02-25T02:52:18.092Z,24.00
2023-02-25T02:53:32.040Z,22.00
2023-02-25T02:54:39.647Z,21.00
2023-02-25T02:55:48.215Z,23.00
2023-02-25T02:56:54.053Z,24.00
2023-02-25T02:58:23.954Z,23.50
2023-02-25T02:59:31.099Z,22.50
2023-02-25T03:00:40.930Z,24.00
2023-02-25T03:01:55.242Z,23.00
2023-02-25T03:03:05.969Z,24.00
2023-02-25T03:04:16.642Z,23.00
2023-02-25T03:05:20.968Z,24.00
2023-02-25T03:06:28.282Z,24.00
2023-02-25T03:07:35.137Z,23.00
2023-02-25T03:08:45.898Z,22.75
2023-02-25T03:09:53.337Z,21.75
2023-02-25T03:10:56.061Z,21.75
2023-02-25T03:11:58.800Z,25.00
2023-02-25T03:13:01.548Z,23.00
2023-02-25T03:14:04.368Z,23.00
2023-02-25T03:15:07.784Z,23.00
2023-02-25T03:16:18.216Z,26.00
2023-02-25T03:17:32.453Z,25.50
2023-02-25T03:18:43.222Z,26.75
2023-02-25T03:20:15.486Z,27.00
2023-02-25T03:21:24.710Z,24.00
2023-02-25T03:22:40.408Z,26.00
2023-02-25T03:23:47.432Z,23.00
2023-02-25T03:24:56.878Z,22.00
2023-02-25T03:26:21.906Z,20.00
2023-02-25T03:27:35.374Z,21.50
2023-02-25T03:28:39.547Z,21.00
2023-02-25T03:29:42.348Z,20.00
2023-02-25T03:31:03.169Z,23.00
2023-02-25T03:32:12.553Z,22.00
2023-02-25T03:33:52.745Z,22.00
2023-02-25T03:34:58.459Z,25.75
2023-02-25T03:36:04.435Z,26.50
2023-02-25T03:37:17.658Z,28.50
2023-02-25T03:38:23.918Z,28.00
2023-02-25T03:39:30.628Z,29.00
2023-02-25T03:40:35.065Z,26.50
2023-02-25T03:41:42.366Z,25.00
2023-02-25T03:42:50.579Z,24.00
2023-02-25T03:43:57.427Z,24.00
2023-02-25T03:45:03.456Z,27.00
2023-02-25T03:46:07.248Z,27.00
2023-02-25T03:47:11.984Z,27.00
2023-02-25T03:48:18.065Z,26.00
2023-02-25T03:49:26.861Z,25.50
2023-02-25T03:50:34.381Z,25.25
2023-02-25T03:51:41.620Z,22.00
2023-02-25T03:52:44.361Z,22.25
2023-02-25T03:53:47.035Z,22.00
2023-02-25T03:54:54.417Z,22.00
2023-02-25T03:55:58.718Z,22.00
2023-02-25T03:57:01.383Z,22.00
2023-02-25T03:58:04.141Z,23.25
2023-02-25T03:59:06.768Z,23.00
2023-02-25T04:00:19.137Z,22.00
2023-02-25T04:01:31.417Z,22.50
2023-02-25T04:02:34.863Z,20.25
2023-02-25T04:03:37.596Z,18.00
2023-02-25T04:04:40.426Z,22.00
2023-02-25T04:05:43.205Z,22.75
2023-02-25T04:06:45.874Z,23.00
2023-02-25T04:07:49.283Z,23.25
2023-02-25T04:08:52.773Z,23.00
2023-02-25T04:09:55.559Z,26.00
2023-02-25T04:10:58.262Z,26.75
2023-02-25T04:12:00.999Z,25.00
2023-02-25T04:13:03.614Z,25.00
2023-02-25T04:14:06.255Z,25.00
2023-02-25T04:15:10.345Z,23.00
2023-02-25T04:16:13.083Z,22.50
2023-02-25T04:17:15.861Z,23.50
2023-02-25T04:18:18.514Z,24.00
2023-02-25T04:19:21.194Z,24.00
2023-02-25T04:20:23.873Z,27.25
2023-02-25T04:21:31.105Z,27.00
2023-02-25T04:22:34.370Z,27.00
2023-02-25T04:23:37.854Z,24.00
2023-02-25T04:24:40.481Z,23.25
2023-02-25T04:25:44.420Z,22.00
2023-02-25T04:26:47.099Z,22.00
2023-02-25T04:27:49.794Z,24.00
2023-02-25T04:28:52.443Z,23.00
2023-02-25T04:29:55.150Z,21.00
2023-02-25T04:30:58.062Z,20.75
2023-02-25T04:32:00.978Z,21.00
2023-02-25T04:33:03.972Z,20.75
2023-02-25T04:34:06.635Z,20.00
2023-02-25T04:35:13.261Z,21.75
2023-02-25T04:36:31.213Z,23.00
2023-02-25T04:37:34.094Z,22.00
2023-02-25T04:38:36.720Z,20.75
2023-02-25T04:39:39.392Z,23.00
2023-02-25T04:40:42.320Z,26.00
2023-02-25T04:41:46.231Z,25.00
2023-02-25T04:42:49.590Z,23.50
2023-02-25T04:43:52.231Z,23.75
2023-02-25T04:44:54.914Z,23.00
2023-02-25T04:45:57.642Z,24.00
2023-02-25T04:47:00.353Z,24.00
2023-02-25T04:48:02.966Z,23.00
2023-02-25T04:49:07.797Z,25.75
2023-02-25T04:50:11.813Z,25.50
2023-02-25T04:51:14.866Z,24.00
2023-02-25T04:52:17.593Z,24.00
2023-02-25T04:53:20.298Z,23.00
2023-02-25T04:54:23.150Z,23.00
2023-02-25T04:55:25.816Z,23.00
2023-02-25T04:56:28.720Z,23.00
2023-02-25T04:57:31.344Z,25.75
2023-02-25T04:58:35.226Z,23.00
2023-02-25T04:59:38.142Z,26.00
2023-02-25T05:00:48.609Z,24.00
2023-02-25T05:01:51.354Z,23.00
2023-02-25T05:02:54.031Z,22.00
2023-02-25T05:03:57.955Z,23.00
2023-02-25T05:05:00.680Z,21.00
2023-02-25T05:06:04.586Z,20.00
2023-02-25T05:07:07.945Z,18.50
2023-02-25T05:08:10.640Z,19.00
2023-02-25T05:09:13.332Z,15.00
2023-02-25T05:10:16.352Z,16.00
2023-02-25T05:11:19.644Z,14.00
2023-02-25T05:12:22.832Z,14.00
2023-02-25T05:13:25.561Z,15.00
2023-02-25T05:14:28.256Z,14.75
2023-02-25T05:15:30.934Z,15.00
2023-02-25T05:16:33.650Z,14.00
2023-02-25T05:17:37.098Z,13.00
2023-02-25T05:18:44.003Z,10.00
2023-02-25T05:19:46.656Z,12.75
2023-02-25T05:20:49.311Z,11.25
2023-02-25T05:21:53.375Z,11.75
2023-02-25T05:22:56.319Z,11.00
2023-02-25T05:23:58.923Z,9.25
2023-02-25T05:25:01.625Z,9.50
2023-02-25T05:26:04.330Z,9.75
2023-02-25T05:27:07.223Z,11.00
2023-02-25T05:28:13.768Z,11.75
2023-02-25T05:29:16.382Z,9.25
2023-02-25T05:30:20.699Z,6.75
2023-02-25T05:31:25.845Z,7.25
2023-02-25T05:32:29.002Z,7.00
2023-02-25T05:33:31.700Z,6.50
2023-02-25T05:34:34.931Z,8.00
2023-02-25T05:35:41.724Z,7.50
2023-02-25T05:36:44.359Z,7.00
2023-02-25T05:37:46.994Z,8.00
2023-02-25T05:38:49.702Z,7.00
2023-02-25T05:39:52.388Z,6.00
2023-02-25T05:40:56.127Z,6.00
2023-02-25T05:41:58.985Z,4.00
2023-02-25T05:43:01.684Z,5.00
2023-02-25T05:44:04.306Z,6.00
2023-02-25T05:45:09.517Z,4.25
2023-02-25T05:46:15.196Z,4.75
2023-02-25T05:47:19.879Z,4.00
2023-02-25T05:48:23.104Z,4.00
2023-02-25T05:49:25.863Z,4.50
2023-02-25T05:50:29.872Z,4.50
2023-02-25T05:51:32.540Z,4.00
2023-02-25T05:52:35.194Z,4.00
2023-02-25T05:53:38.475Z,4.50
2023-02-25T05:54:41.453Z,4.00
2023-02-25T05:55:45.007Z,3.00
2023-02-25T05:56:47.642Z,4.00
2023-02-25T05:57:51.934Z,3.00
2023-02-25T05:58:55.797Z,1.75
2023-02-25T05:59:58.437Z,4.00
2023-02-25T06:01:01.440Z,3.25
2023-02-25T06:02:04.833Z,4.00
2023-02-25T06:03:07.641Z,2.75
2023-02-25T06:04:10.300Z,7.50
2023-02-25T06:05:12.977Z,15.00
2023-02-25T06:06:17.760Z,26.50
2023-02-25T06:07:20.405Z,32.75
2023-02-25T06:08:22.996Z,42.25
2023-02-25T06:09:25.649Z,36.25
2023-02-25T06:10:28.836Z,37.75
2023-02-25T06:11:31.897Z,37.00
2023-02-25T06:12:35.335Z,48.25
2023-02-25T06:13:38.081Z,42.00
2023-02-25T06:14:40.815Z,30.00
2023-02-25T06:15:44.342Z,29.25
2023-02-25T06:16:47.104Z,22.25
2023-02-25T06:17:51.202Z,9.25
2023-02-25T06:18:53.912Z,6.25
2023-02-25T06:19:57.366Z,6.00
2023-02-25T06:21:06.468Z,4.75
2023-02-25T06:22:09.185Z,5.00
2023-02-25T06:23:11.914Z,4.00
2023-02-25T06:24:14.817Z,3.00
2023-02-25T06:25:17.539Z,4.75
2023-02-25T06:26:20.404Z,7.00
2023-02-25T06:27:23.421Z,5.00
2023-02-25T06:28:26.062Z,3.00
2023-02-25T06:29:28.706Z,4.75
2023-02-25T06:30:32.038Z,11.75
2023-02-25T06:31:35.591Z,9.00
2023-02-25T06:32:39.241Z,9.50
2023-02-25T06:33:42.360Z,9.00
2023-02-25T06:34:45.060Z,5.75
2023-02-25T06:35:53.114Z,9.00
2023-02-25T06:36:55.779Z,9.00
2023-02-25T06:37:59.974Z,5.50
2023-02-25T06:39:02.820Z,6.75
2023-02-25T06:40:06.400Z,9.00
2023-02-25T06:41:11.707Z,4.00
2023-02-25T06:42:14.470Z,4.00
2023-02-25T06:43:18.002Z,6.50
2023-02-25T06:44:20.761Z,5.00
2023-02-25T06:45:25.076Z,7.00
2023-02-25T06:46:28.403Z,4.00
2023-02-25T06:47:31.277Z,10.00
2023-02-25T06:48:34.138Z,11.00
2023-02-25T06:49:36.826Z,14.00
2023-02-25T06:50:40.616Z,15.00
2023-02-25T06:51:43.216Z,14.00
2023-02-25T06:52:45.878Z,14.00
2023-02-25T06:53:48.756Z,16.00
2023-02-25T06:54:52.483Z,14.00
2023-02-25T06:55:55.102Z,14.00
2023-02-25T06:56:57.875Z,14.00
2023-02-25T06:58:00.552Z,12.00
2023-02-25T06:59:03.201Z,13.50
2023-02-25T07:00:07.121Z,14.00
2023-02-25T07:01:12.231Z,18.00
2023-02-25T07:02:15.315Z,13.00
2023-02-25T07:03:18.588Z,14.00
2023-02-25T07:04:21.361Z,14.00
2023-02-25T07:05:24.292Z,15.00
2023-02-25T07:06:27.525Z,14.00
2023-02-25T07:07:30.332Z,15.00
2023-02-25T07:08:33.631Z,13.25
2023-02-25T07:09:36.263Z,15.00
2023-02-25T07:10:41.575Z,14.00
2023-02-25T07:11:44.212Z,13.50
2023-02-25T07:12:46.839Z,13.00
2023-02-25T07:13:50.941Z,13.00
2023-02-25T07:14:53.660Z,13.50
2023-02-25T07:15:56.436Z,11.00
2023-02-25T07:16:59.142Z,10.00
2023-02-25T07:18:01.820Z,9.00
2023-02-25T07:19:04.533Z,9.00
2023-02-25T07:20:07.933Z,7.00
2023-02-25T07:21:11.069Z,6.00
2023-02-25T07:22:18.300Z,7.00
2023-02-25T07:23:20.951Z,8.00
2023-02-25T07:24:24.354Z,6.50
2023-02-25T07:25:27.123Z,4.00
2023-02-25T07:26:29.896Z,4.25
2023-02-25T07:27:32.541Z,4.00
2023-02-25T07:28:35.742Z,3.00
2023-02-25T07:29:38.374Z,1.00
2023-02-25T07:30:41.062Z,1.00
2023-02-25T07:31:43.863Z,2.00
2023-02-25T07:32:46.824Z,1.00
2023-02-25T07:33:49.818Z,0.00
2023-02-25T07:34:52.440Z,0.00
2023-02-25T07:35:55.866Z,1.00
2023-02-25T07:36:58.760Z,2.00
2023-02-25T07:38:01.557Z,30.00
2023-02-25T07:39:07.530Z,41.25
2023-02-25T07:40:17.908Z,17.00
2023-02-25T07:41:21.681Z,7.00
2023-02-25T07:42:24.479Z,3.00
2023-02-25T07:43:27.088Z,2.00
2023-02-25T07:44:29.737Z,0.00
2023-02-25T07:45:32.411Z,2.00
2023-02-25T07:46:35.289Z,1.00
2023-02-25T07:47:39.227Z,1.75
2023-02-25T07:48:42.527Z,2.00
2023-02-25T07:49:45.318Z,1.00
2023-02-25T07:50:47.939Z,1.00
2023-02-25T07:51:50.594Z,2.00
2023-02-25T07:52:53.244Z,1.00
2023-02-25T07:53:58.524Z,2.00
2023-02-25T07:55:01.338Z,2.00
2023-02-25T07:56:04.228Z,3.00
2023-02-25T07:57:06.878Z,3.00
2023-02-25T07:58:09.536Z,2.00
2023-02-25T07:59:12.444Z,3.50
2023-02-25T08:00:15.400Z,3.50
2023-02-25T08:01:21.292Z,3.50
2023-02-25T08:02:24.464Z,4.00
2023-02-25T08:03:27.336Z,4.00
2023-02-25T08:04:31.033Z,3.50
2023-02-25T08:05:37.498Z,3.00
2023-02-25T08:06:42.217Z,4.00
2023-02-25T08:07:44.930Z,4.00
2023-02-25T08:08:48.103Z,3.00
2023-02-25T08:09:50.727Z,4.00
2023-02-25T08:10:53.523Z,3.00
2023-02-25T08:11:56.138Z,3.00
2023-02-25T08:12:58.839Z,4.00
2023-02-25T08:14:02.736Z,3.00
2023-02-25T08:15:05.785Z,4.00
2023-02-25T08:16:10.786Z,4.00
2023-02-25T08:17:14.288Z,4.00
2023-02-25T08:18:17.072Z,3.75
2023-02-25T08:19:19.734Z,3.00
2023-02-25T08:20:23.522Z,4.00
2023-02-25T08:21:26.858Z,4.00
2023-02-25T08:22:29.604Z,3.00
2023-02-25T08:23:32.502Z,2.75
2023-02-25T08:24:35.275Z,3.75
2023-02-25T08:25:37.914Z,3.00
2023-02-25T08:26:40.557Z,2.00
2023-02-25T08:27:45.196Z,3.00
2023-02-25T08:28:48.246Z,2.00
2023-02-25T08:29:50.996Z,2.00
2023-02-25T08:30:54.545Z,2.00
2023-02-25T08:31:57.478Z,4.00
2023-02-25T08:33:00.520Z,7.00
2023-02-25T08:34:03.350Z,5.00
2023-02-25T08:35:06.235Z,5.75
2023-02-25T08:36:15.613Z,4.00
2023-02-25T08:37:18.372Z,5.75
2023-02-25T08:38:21.077Z,7.00
2023-02-25T08:39:24.122Z,4.00
2023-02-25T08:40:26.770Z,2.00
2023-02-25T08:41:30.856Z,2.75
2023-02-25T08:42:33.846Z,3.50
2023-02-25T08:43:37.920Z,4.25
2023-02-25T08:44:40.622Z,5.00
2023-02-25T08:45:43.394Z,8.50
2023-02-25T08:46:46.771Z,11.00
2023-02-25T08:47:49.593Z,11.25
2023-02-25T08:48:53.845Z,13.00
2023-02-25T08:49:56.496Z,8.00
2023-02-25T08:51:04.932Z,6.25
2023-02-25T08:52:07.994Z,5.00
2023-02-25T08:53:11.493Z,4.00
2023-02-25T08:54:15.281Z,8.00
2023-02-25T08:55:19.251Z,4.00
2023-02-25T08:56:21.922Z,3.75
2023-02-25T08:57:27.567Z,4.25
2023-02-25T08:58:31.023Z,4.75
2023-02-25T08:59:37.094Z,3.00
2023-02-25T09:00:39.810Z,2.75
2023-02-25T09:01:50.081Z,3.00
2023-02-25T09:02:52.790Z,0.00
2023-02-25T09:03:55.448Z,1.00
2023-02-25T09:04:58.118Z,1.50
2023-02-25T09:06:00.808Z,3.50
2023-02-25T09:07:03.842Z,3.25
2023-02-25T09:08:06.491Z,2.00
2023-02-25T09:09:09.544Z,0.00
2023-02-25T09:10:14.853Z,1.75
2023-02-25T09:11:18.415Z,4.00
2023-02-25T09:12:22.964Z,3.00
2023-02-25T09:13:26.939Z,2.25
2023-02-25T09:14:30.233Z,3.00
2023-02-25T09:15:33.655Z,4.00
2023-02-25T09:16:36.554Z,4.50
2023-02-25T09:17:41.531Z,4.00
2023-02-25T09:18:48.601Z,3.00
2023-02-25T09:19:51.253Z,4.00
2023-02-25T09:20:54.401Z,5.00
2023-02-25T09:21:56.996Z,5.75
2023-02-25T09:23:00.750Z,7.00
2023-02-25T09:24:03.470Z,5.50
2023-02-25T09:25:07.691Z,4.00
2023-02-25T09:26:10.777Z,4.00
2023-02-25T09:27:14.514Z,3.00
2023-02-25T09:28:18.429Z,4.00
2023-02-25T09:29:21.112Z,3.75
2023-02-25T09:30:23.968Z,3.50
2023-02-25T09:31:27.153Z,4.00
2023-02-25T09:32:30.317Z,4.00
2023-02-25T09:33:34.706Z,4.00
2023-02-25T09:34:37.380Z,4.00
2023-02-25T09:35:41.915Z,4.00
2023-02-25T09:36:44.874Z,8.50
2023-02-25T09:37:47.496Z,8.00
2023-02-25T09:38:51.775Z,4.25
2023-02-25T09:39:54.543Z,4.00
2023-02-25T09:40:57.192Z,4.00
2023-02-25T09:42:14.953Z,4.00
2023-02-25T09:43:29.302Z,3.75
2023-02-25T09:44:43.189Z,2.50
2023-02-25T09:45:48.601Z,3.00
2023-02-25T09:47:31.143Z,2.25
2023-02-25T09:48:38.621Z,2.50
2023-02-25T09:50:01.504Z,3.00
2023-02-25T09:51:22.192Z,4.00
2023-02-25T09:52:42.888Z,3.00
2023-02-25T09:53:56.930Z,1.50
2023-02-25T09:55:24.861Z,1.75
2023-02-25T09:56:29.044Z,0.00
2023-02-25T09:57:36.318Z,0.00
2023-02-25T09:58:53.455Z,1.00
2023-02-25T09:59:56.224Z,4.00
2023-02-25T10:01:19.838Z,5.25
2023-02-25T10:02:39.296Z,4.00
2023-02-25T10:03:51.687Z,5.50
2023-02-25T10:05:19.344Z,5.00
2023-02-25T10:06:37.276Z,4.00
2023-02-25T10:07:49.628Z,3.00
2023-02-25T10:09:16.691Z,1.50
2023-02-25T10:10:41.964Z,0.00
2023-02-25T10:12:03.189Z,0.75
2023-02-25T10:13:24.615Z,2.00
2023-02-25T10:14:42.146Z,4.00
2023-02-25T10:15:53.917Z,7.00
2023-02-25T10:17:30.074Z,6.50
2023-02-25T10:19:20.988Z,8.75
2023-02-25T10:20:40.549Z,4.00
2023-02-25T10:21:54.258Z,7.50
2023-02-25T10:23:09.092Z,5.00
2023-02-25T10:24:26.209Z,4.00
2023-02-25T10:25:33.948Z,3.00
2023-02-25T10:26:42.522Z,1.00
2023-02-25T10:27:52.801Z,4.25
2023-02-25T10:29:00.474Z,4.00
2023-02-25T10:30:09.539Z,5.25
2023-02-25T10:31:22.655Z,3.25
2023-02-25T10:32:28.583Z,4.00
2023-02-25T10:33:37.923Z,7.00
2023-02-25T10:34:40.892Z,3.00
2023-02-25T10:35:44.705Z,5.00
2023-02-25T10:36:56.314Z,4.00
2023-02-25T10:37:59.021Z,4.75
2023-02-25T10:39:01.784Z,4.00
2023-02-25T10:40:11.954Z,3.00
2023-02-25T10:41:15.539Z,3.00
2023-02-25T10:42:18.446Z,2.00
2023-02-25T10:43:23.679Z,1.00
2023-02-25T10:44:26.316Z,2.75
2023-02-25T10:45:32.141Z,2.00
2023-02-25T10:46:41.286Z,0.75
2023-02-25T10:47:48.588Z,0.00
2023-02-25T10:49:18.685Z,2.50
2023-02-25T10:50:29.802Z,3.00
2023-02-25T10:51:35.535Z,4.00
2023-02-25T10:52:55.579Z,5.00
2023-02-25T10:53:58.243Z,4.00
2023-02-25T10:55:00.970Z,4.00
2023-02-25T10:56:05.064Z,4.00
2023-02-25T10:57:17.062Z,5.00
2023-02-25T10:58:28.723Z,4.00
2023-02-25T10:59:40.390Z,4.00
2023-02-25T11:01:00.683Z,3.00
2023-02-25T11:02:06.353Z,1.00
2023-02-25T11:03:24.191Z,0.00
2023-02-25T11:04:38.724Z,1.00
2023-02-25T11:05:43.725Z,1.00
2023-02-25T11:06:46.801Z,1.00
2023-02-25T11:07:51.084Z,2.00
2023-02-25T11:08:57.441Z,1.00
2023-02-25T11:10:16.616Z,1.00
2023-02-25T11:11:23.525Z,1.00
2023-02-25T11:12:26.675Z,1.00
2023-02-25T11:13:32.205Z,3.00
2023-02-25T11:14:38.446Z,4.00
2023-02-25T11:15:45.721Z,2.50
2023-02-25T11:16:49.345Z,1.25
2023-02-25T11:17:53.381Z,1.00
2023-02-25T11:19:02.078Z,3.00
2023-02-25T11:20:07.242Z,2.00
2023-02-25T11:21:14.558Z,3.00
2023-02-25T11:22:20.605Z,2.50
2023-02-25T11:23:28.627Z,2.00
2023-02-25T11:24:38.201Z,3.00
2023-02-25T11:25:44.596Z,1.00
2023-02-25T11:26:50.464Z,3.25
2023-02-25T11:27:59.574Z,9.00
2023-02-25T11:29:30.188Z,13.00
2023-02-25T11:30:38.637Z,6.00
2023-02-25T11:31:43.385Z,8.75
2023-02-25T11:32:50.952Z,8.50
2023-02-25T11:34:02.416Z,10.75
2023-02-25T11:35:09.926Z,11.00
2023-02-25T11:36:13.503Z,3.00
2023-02-25T11:37:37.813Z,3.00
2023-02-25T11:38:43.582Z,3.50
2023-02-25T11:39:56.886Z,4.00
2023-02-25T11:40:59.723Z,5.00
2023-02-25T11:42:19.069Z,4.75
2023-02-25T11:43:24.782Z,1.00
2023-02-25T11:44:29.485Z,3.50
2023-02-25T11:45:39.515Z,4.75
2023-02-25T11:46:42.297Z,11.25
2023-02-25T11:47:44.960Z,11.00
2023-02-25T11:48:55.566Z,4.00
2023-02-25T11:50:20.946Z,4.50
2023-02-25T11:51:38.640Z,4.50
2023-02-25T11:52:47.296Z,5.25
2023-02-25T11:54:27.180Z,6.75
2023-02-25T11:56:06.957Z,5.00
2023-02-25T11:57:15.504Z,2.75
2023-02-25T11:58:18.100Z,2.00
2023-02-25T11:59:26.719Z,2.00
2023-02-25T12:00:33.300Z,0.00
2023-02-25T12:01:35.936Z,4.50
2023-02-25T12:03:16.484Z,5.00
2023-02-25T12:04:53.756Z,2.00
2023-02-25T12:06:09.235Z,2.00
2023-02-25T12:08:12.477Z,1.75
2023-02-25T12:09:41.107Z,3.00
2023-02-25T12:11:20.658Z,6.00
2023-02-25T12:13:18.310Z,3.75
2023-02-25T12:14:26.914Z,2.00
2023-02-25T12:15:54.286Z,4.00
2023-02-25T12:17:31.201Z,5.00
2023-02-25T12:19:11.148Z,3.25
2023-02-25T12:20:47.261Z,7.00
2023-02-25T12:22:28.270Z,5.00
2023-02-25T12:24:09.678Z,2.00
2023-02-25T12:25:24.783Z,4.50
2023-02-25T12:27:03.761Z,5.25
2023-02-25T12:28:42.741Z,2.25
2023-02-25T12:30:11.456Z,6.00
2023-02-25T12:31:14.257Z,5.00
2023-02-25T12:32:17.111Z,5.00
2023-02-25T12:33:38.488Z,6.00
2023-02-25T12:35:08.094Z,5.25
2023-02-25T12:36:35.365Z,10.25
2023-02-25T12:37:46.974Z,6.50
2023-02-25T12:39:01.972Z,7.25
2023-02-25T12:40:19.690Z,6.00
2023-02-25T12:41:38.314Z,5.00
2023-02-25T12:43:07.286Z,7.00
2023-02-25T12:44:31.676Z,6.00
2023-02-25T12:45:40.211Z,8.50
2023-02-25T12:47:07.058Z,7.00
2023-02-25T12:48:36.211Z,5.00
2023-02-25T12:50:03.273Z,5.00
2023-02-25T12:51:48.037Z,5.50
2023-02-25T12:53:21.071Z,5.00
2023-02-25T12:55:00.621Z,5.00
2023-02-25T12:56:08.979Z,6.25
2023-02-25T12:57:23.619Z,9.00
2023-02-25T12:58:34.751Z,5.00
2023-02-25T13:00:08.909Z,7.00
2023-02-25T13:01:29.719Z,2.25
2023-02-25T13:03:09.751Z,0.50
2023-02-25T13:04:15.087Z,3.75
2023-02-25T13:05:43.811Z,1.00
2023-02-25T13:07:27.810Z,3.00
2023-02-25T13:09:11.890Z,1.50
2023-02-25T13:10:40.483Z,3.00
2023-02-25T13:12:12.403Z,3.00
2023-02-25T13:13:38.391Z,2.00
2023-02-25T13:15:26.360Z,1.00
2023-02-25T13:17:14.353Z,1.00
2023-02-25T13:18:36.959Z,3.00
2023-02-25T13:20:06.974Z,2.00
2023-02-25T13:23:32.015Z,2.00
2023-02-25T13:25:09.375Z,1.00
2023-02-25T13:26:33.576Z,3.00
2023-02-25T13:27:57.480Z,5.00
2023-02-25T13:29:37.120Z,3.00
2023-02-25T13:30:52.408Z,5.00
2023-02-25T13:32:07.241Z,5.00
2023-02-25T13:33:49.815Z,7.50
2023-02-25T13:35:12.753Z,6.50
2023-02-25T13:36:34.431Z,4.00
2023-02-25T13:37:48.064Z,5.00
2023-02-25T13:39:08.514Z,3.75
2023-02-25T13:40:36.614Z,3.00
2023-02-25T13:42:01.192Z,5.00
2023-02-25T13:43:22.346Z,5.00
2023-02-25T13:44:54.596Z,1.00
2023-02-25T13:46:03.489Z,5.00
2023-02-25T13:47:36.429Z,5.00
2023-02-25T13:48:48.008Z,8.00
2023-02-25T13:50:28.119Z,4.25
2023-02-25T13:52:06.093Z,6.00
2023-02-25T13:53:24.974Z,5.00
2023-02-25T13:54:51.871Z,5.00
2023-02-25T13:56:15.404Z,2.00
2023-02-25T13:57:47.272Z,1.00
2023-02-25T13:59:20.529Z,0.00
2023-02-25T14:01:05.664Z,5.00
2023-02-25T14:02:23.232Z,3.75
2023-02-25T14:03:53.649Z,1.50
2023-02-25T14:05:26.275Z,5.00
2023-02-25T14:06:51.554Z,2.00
2023-02-25T14:08:13.941Z,1.00
2023-02-25T14:09:48.688Z,3.00
2023-02-25T14:11:04.597Z,2.25
2023-02-25T14:12:13.402Z,4.00
2023-02-25T14:13:27.953Z,2.00
2023-02-25T14:14:45.208Z,3.00
2023-02-25T14:15:53.621Z,2.00
2023-02-25T14:17:14.594Z,3.00
2023-02-25T14:18:32.271Z,3.00
2023-02-25T14:20:03.327Z,5.00
2023-02-25T14:21:30.148Z,13.00
2023-02-25T14:22:38.356Z,15.50
2023-02-25T14:24:17.780Z,17.00
2023-02-25T14:25:35.617Z,16.00
2023-02-25T14:26:59.149Z,6.75
2023-02-25T14:28:13.656Z,2.00
2023-02-25T14:29:40.539Z,5.00
2023-02-25T14:31:05.008Z,9.00
2023-02-25T14:32:35.743Z,5.00
2023-02-25T14:34:02.714Z,11.25
2023-02-25T14:35:42.233Z,5.50
2023-02-25T14:37:03.282Z,6.00
2023-02-25T14:38:11.289Z,2.25
2023-02-25T14:39:38.886Z,4.75
2023-02-25T14:41:38.571Z,2.25
2023-02-25T14:42:50.254Z,2.50
2023-02-25T14:43:57.376Z,7.25
2023-02-25T14:45:03.492Z,10.00
2023-02-25T14:46:41.470Z,10.25
2023-02-25T14:47:54.984Z,12.50
2023-02-25T14:49:05.334Z,10.25
2023-02-25T14:50:16.976Z,9.25
2023-02-25T14:51:40.968Z,5.00
2023-02-25T14:52:59.478Z,5.00
2023-02-25T14:54:11.111Z,5.00
2023-02-25T14:55:40.867Z,8.00
2023-02-25T14:57:16.460Z,8.50
2023-02-25T14:58:44.885Z,5.00
2023-02-25T15:00:03.470Z,10.25
2023-02-25T15:01:20.948Z,10.00
2023-02-25T15:02:29.598Z,7.00
2023-02-25T15:04:00.196Z,15.00
2023-02-25T15:05:30.849Z,17.00
2023-02-25T15:06:54.458Z,14.50
2023-02-25T15:08:20.093Z,15.00
2023-02-25T15:09:57.993Z,16.50
2023-02-25T15:11:21.993Z,16.25
2023-02-25T15:12:27.738Z,14.25
2023-02-25T15:13:48.544Z,14.50
2023-02-25T15:15:06.817Z,19.00
2023-02-25T15:16:19.731Z,16.75